createdAt,value
2022-12-08T00:04:23.944Z,3.87
2022-12-08T00:09:34.751Z,3.93
2022-12-08T00:14:42.386Z,4.01
2022-12-08T00:19:46.741Z,4.03
2022-12-08T00:24:49.474Z,4.01
2022-12-08T00:29:52.236Z,4.02
2022-12-08T00:34:56.424Z,4.18
2022-12-08T00:39:59.238Z,4.17
2022-12-08T00:45:02.088Z,4.13
2022-12-08T00:50:07.564Z,4.01
2022-12-08T00:55:10.436Z,4.18
2022-12-08T01:00:14.025Z,4.29
2022-12-08T01:05:18.230Z,4.24
2022-12-08T01:10:21.079Z,4.16
2022-12-08T01:15:23.990Z,4.12
2022-12-08T01:20:28.264Z,4.06
2022-12-08T01:25:31.104Z,4.03
2022-12-08T01:30:34.035Z,3.95
2022-12-08T01:35:40.400Z,3.86
2022-12-08T01:40:43.193Z,3.95
2022-12-08T01:45:46.112Z,3.99
2022-12-08T01:50:50.897Z,4.01
2022-12-08T01:55:57.549Z,4.12
2022-12-08T02:01:00.349Z,4.19
2022-12-08T02:06:05.255Z,4.28
2022-12-08T02:11:10.198Z,4.12
2022-12-08T02:16:18.455Z,4.25
2022-12-08T02:21:28.724Z,4.39
2022-12-08T02:26:58.288Z,4.11
2022-12-08T02:32:16.117Z,4.04
2022-12-08T02:37:26.319Z,4.06
2022-12-08T02:42:32.953Z,4.01
2022-12-08T02:47:35.747Z,4.11
2022-12-08T02:52:44.342Z,4.06
2022-12-08T02:58:01.801Z,4.09
2022-12-08T03:03:10.285Z,4.07
2022-12-08T03:08:18.464Z,4.30
2022-12-08T03:13:22.557Z,4.22
2022-12-08T03:18:29.145Z,4.41
2022-12-08T03:23:33.799Z,4.71
2022-12-08T03:28:36.746Z,4.41
2022-12-08T03:33:41.893Z,4.39
2022-12-08T03:38:47.027Z,4.08
2022-12-08T03:43:51.041Z,4.04
2022-12-08T03:48:53.893Z,4.08
2022-12-08T03:53:58.038Z,4.11
2022-12-08T03:59:01.305Z,4.15
2022-12-08T04:04:04.407Z,3.98
2022-12-08T04:09:08.526Z,3.91
2022-12-08T04:14:11.299Z,3.95
2022-12-08T04:19:14.991Z,4.04
2022-12-08T04:24:19.289Z,4.15
2022-12-08T04:29:22.024Z,4.30
2022-12-08T04:34:24.997Z,4.46
2022-12-08T04:39:29.166Z,4.59
2022-12-08T04:44:31.946Z,4.75
2022-12-08T04:49:34.704Z,4.80
2022-12-08T04:54:38.929Z,4.81
2022-12-08T04:59:41.779Z,4.76
2022-12-08T05:04:44.548Z,4.68
2022-12-08T05:09:48.718Z,4.61
2022-12-08T05:14:51.495Z,4.65
2022-12-08T05:19:54.443Z,4.63
2022-12-08T05:24:58.597Z,4.53
2022-12-08T05:30:01.589Z,4.29
2022-12-08T05:35:04.663Z,4.30
2022-12-08T05:40:09.863Z,4.36
2022-12-08T05:45:12.639Z,4.29
2022-12-08T05:50:15.457Z,4.27
2022-12-08T05:55:19.660Z,4.14
2022-12-08T06:00:23.109Z,4.07
2022-12-08T06:05:25.910Z,3.92
2022-12-08T06:10:30.118Z,3.92
2022-12-08T06:15:34.821Z,3.61
2022-12-08T06:20:37.644Z,3.53
2022-12-08T06:25:41.788Z,3.77
2022-12-08T06:30:44.579Z,3.75
2022-12-08T06:35:47.329Z,3.82
2022-12-08T06:40:56.063Z,3.85
2022-12-08T06:45:58.894Z,4.10
2022-12-08T06:51:07.346Z,4.28
2022-12-08T06:56:12.077Z,4.39
2022-12-08T07:01:15.100Z,4.39
2022-12-08T07:06:21.750Z,4.37
2022-12-08T07:11:25.844Z,4.36
2022-12-08T07:16:28.655Z,4.37
2022-12-08T07:21:31.510Z,4.31
2022-12-08T07:26:35.710Z,4.27
2022-12-08T07:31:38.529Z,4.32
2022-12-08T07:36:41.672Z,3.97
2022-12-08T07:41:45.834Z,4.04
2022-12-08T07:46:48.643Z,4.02
2022-12-08T07:51:51.540Z,3.90
2022-12-08T07:56:58.269Z,3.92
2022-12-08T08:02:22.762Z,3.88
2022-12-08T08:07:23.830Z,3.78
2022-12-08T08:12:32.384Z,4.05
2022-12-08T08:17:36.307Z,4.07
2022-12-08T08:22:39.215Z,4.07
2022-12-08T08:27:43.844Z,4.13
2022-12-08T08:32:46.654Z,4.05
2022-12-08T08:37:49.763Z,3.40
2022-12-08T08:42:53.975Z,3.45
2022-12-08T08:47:56.794Z,3.71
2022-12-08T08:52:59.574Z,3.86
2022-12-08T08:58:03.729Z,4.22
2022-12-08T09:03:06.543Z,4.07
2022-12-08T09:08:09.522Z,4.40
2022-12-08T09:13:13.734Z,4.35
2022-12-08T09:18:16.611Z,4.33
2022-12-08T09:23:19.364Z,4.21
2022-12-08T09:28:23.552Z,4.08
2022-12-08T09:33:26.361Z,4.13
2022-12-08T09:38:30.750Z,4.09
2022-12-08T09:43:47.089Z,4.03
2022-12-08T09:48:55.717Z,4.05
2022-12-08T09:54:01.426Z,4.21
2022-12-08T09:59:11.944Z,4.12
2022-12-08T10:04:22.217Z,4.05
2022-12-08T10:09:32.247Z,4.28
2022-12-08T10:14:43.180Z,4.02
2022-12-08T10:19:47.925Z,3.97
2022-12-08T10:25:00.282Z,4.15
2022-12-08T10:30:05.322Z,4.18
2022-12-08T10:35:10.831Z,4.19
2022-12-08T10:40:15.645Z,4.18
2022-12-08T10:45:29.245Z,4.23
2022-12-08T10:50:35.275Z,4.06
2022-12-08T10:55:42.171Z,3.96
2022-12-08T11:00:46.445Z,3.96
2022-12-08T11:05:49.284Z,3.90
2022-12-08T11:10:52.142Z,3.97
2022-12-08T11:15:57.184Z,3.81
2022-12-08T11:21:02.716Z,3.46
2022-12-08T11:26:11.692Z,3.37
2022-12-08T11:31:23.981Z,3.17
2022-12-08T11:36:27.694Z,3.03
2022-12-08T11:41:32.654Z,2.95
2022-12-08T11:46:40.321Z,2.99
2022-12-08T11:51:47.262Z,3.27
2022-12-08T11:56:51.134Z,3.56
2022-12-08T12:01:55.542Z,3.79
2022-12-08T12:07:14.260Z,3.99
2022-12-08T12:12:31.655Z,4.55
2022-12-08T12:17:44.112Z,5.11
2022-12-08T12:22:50.647Z,4.73
2022-12-08T12:27:57.872Z,4.61
2022-12-08T12:33:03.261Z,4.81
2022-12-08T12:38:28.335Z,4.77
2022-12-08T12:43:33.864Z,4.38
2022-12-08T12:48:38.457Z,4.61
2022-12-08T12:53:50.140Z,4.81
2022-12-08T12:58:54.952Z,4.92
2022-12-08T13:09:36.414Z,4.86
2022-12-08T13:14:46.794Z,5.33
2022-12-08T13:19:54.737Z,5.42
2022-12-08T13:25:37.324Z,5.17
2022-12-08T13:30:44.701Z,4.94
2022-12-08T13:36:03.256Z,4.51
2022-12-08T13:41:12.581Z,4.21
2022-12-08T13:57:11.967Z,4.49
2022-12-08T14:02:19.534Z,4.55
2022-12-08T14:07:23.952Z,4.55
2022-12-08T14:12:27.927Z,4.83
2022-12-08T14:17:30.789Z,4.66
2022-12-08T14:22:36.335Z,4.24
2022-12-08T14:27:39.430Z,3.78
2022-12-08T14:32:45.201Z,3.71
2022-12-08T14:37:51.530Z,3.60
2022-12-08T14:43:12.524Z,3.37
2022-12-08T14:48:23.069Z,3.21
2022-12-08T14:53:27.405Z,3.25
2022-12-08T14:58:31.492Z,3.17
2022-12-08T15:03:34.362Z,3.28
2022-12-08T15:08:53.817Z,3.00
2022-12-08T15:13:56.718Z,3.06
2022-12-08T15:19:05.397Z,3.08
2022-12-08T15:24:12.353Z,3.27
2022-12-08T15:29:21.191Z,3.18
2022-12-08T15:34:24.154Z,3.08
2022-12-08T15:39:51.561Z,2.86
2022-12-08T15:44:54.416Z,2.85
2022-12-08T15:49:57.207Z,2.72
2022-12-08T15:55:01.361Z,2.62
2022-12-08T16:00:06.284Z,2.61
2022-12-08T16:11:24.268Z,2.60
2022-12-08T16:16:05.358Z,2.72
2022-12-08T16:21:53.360Z,2.79
2022-12-08T16:31:55.710Z,2.93
2022-12-08T16:36:58.606Z,2.91
2022-12-08T16:42:20.368Z,2.86
2022-12-08T16:47:23.264Z,2.88
2022-12-08T16:52:26.113Z,3.02
2022-12-08T16:57:30.324Z,3.25
2022-12-08T17:02:33.223Z,3.32
2022-12-08T17:07:36.660Z,3.19
2022-12-08T17:12:40.873Z,3.19
2022-12-08T17:17:43.962Z,3.13
2022-12-08T17:22:46.904Z,3.16
2022-12-08T17:27:51.232Z,3.11
2022-12-08T17:32:54.488Z,3.04
2022-12-08T17:37:57.414Z,2.94
2022-12-08T17:43:01.623Z,2.82
2022-12-08T17:48:04.725Z,2.84
2022-12-08T17:53:07.773Z,2.68
2022-12-08T17:58:11.906Z,2.58
2022-12-08T18:03:14.794Z,2.52
2022-12-08T18:08:17.672Z,2.34
2022-12-08T18:13:21.850Z,2.34
2022-12-08T18:18:24.630Z,2.42
2022-12-08T18:23:27.520Z,2.56
2022-12-08T18:28:31.762Z,2.54
2022-12-08T18:33:34.586Z,2.50
2022-12-08T18:38:37.555Z,2.47
2022-12-08T18:43:41.795Z,2.33
2022-12-08T18:48:46.218Z,2.26
2022-12-08T18:53:49.361Z,1.75
2022-12-08T18:58:58.460Z,1.76
2022-12-08T19:09:29.456Z,1.39
2022-12-08T19:14:33.755Z,1.39
2022-12-08T19:19:37.035Z,1.21
2022-12-08T19:24:40.012Z,1.39
2022-12-08T19:29:44.169Z,1.33
2022-12-08T19:34:47.177Z,1.32
2022-12-08T19:40:07.631Z,1.27
2022-12-08T19:45:14.451Z,1.26
2022-12-08T19:50:35.719Z,1.33
2022-12-08T19:55:38.885Z,1.66
2022-12-08T20:00:43.807Z,1.92
2022-12-08T20:05:48.677Z,2.21
2022-12-08T20:10:55.963Z,2.30
2022-12-08T20:16:00.281Z,2.46
2022-12-08T20:21:03.104Z,2.55
2022-12-08T20:26:06.709Z,2.61
2022-12-08T20:31:18.303Z,2.72
2022-12-08T20:36:22.739Z,2.84
2022-12-08T20:41:25.539Z,2.83
2022-12-08T20:46:29.755Z,2.94
2022-12-08T20:51:34.087Z,2.92
2022-12-08T20:56:37.118Z,2.74
2022-12-08T21:01:41.547Z,2.48
2022-12-08T21:06:44.623Z,2.49
2022-12-08T21:11:47.527Z,2.90
2022-12-08T21:16:51.721Z,2.77
2022-12-08T21:21:56.758Z,2.86
2022-12-08T21:26:59.930Z,3.00
2022-12-08T21:32:04.234Z,3.11
2022-12-08T21:37:07.118Z,3.02
2022-12-08T21:42:32.391Z,3.04
2022-12-08T21:47:38.563Z,3.21
2022-12-08T21:52:43.006Z,3.04
2022-12-08T21:57:46.064Z,3.14
2022-12-08T22:02:50.398Z,3.15
2022-12-08T22:07:53.792Z,3.18
2022-12-08T22:12:56.831Z,3.21
2022-12-08T22:18:01.213Z,2.98
2022-12-08T22:23:04.180Z,2.97
2022-12-08T22:28:07.221Z,3.05
2022-12-08T22:33:11.604Z,3.11
2022-12-08T22:38:14.420Z,3.17
2022-12-08T22:43:17.483Z,3.09
2022-12-08T22:48:21.644Z,3.02
2022-12-08T22:53:24.447Z,2.69
2022-12-08T22:58:27.259Z,2.15
2022-12-08T23:03:31.890Z,2.08
2022-12-08T23:08:34.980Z,2.02
2022-12-08T23:13:38.283Z,2.10
2022-12-08T23:18:44.965Z,1.96
2022-12-08T23:23:48.231Z,1.78
2022-12-08T23:28:51.343Z,1.75
2022-12-08T23:33:55.603Z,1.64
2022-12-08T23:38:58.429Z,1.55
2022-12-08T23:44:01.439Z,1.44
2022-12-08T23:49:05.845Z,1.25
2022-12-08T23:54:09.288Z,1.07
2022-12-08T23:59:12.243Z,1.05
